sensor_id;sensor_type;location;lat;lon;timestamp;temperature;humidity
65087;DHT22;52094;51.234;-2.310;2022-09-24T00:01:31;10.10;65.30
65087;DHT22;52094;51.234;-2.310;2022-09-24T00:05:13;10.10;65.30
65087;DHT22;52094;51.234;-2.310;2022-09-24T00:08:56;10.10;65.40
65087;DHT22;52094;51.234;-2.310;2022-09-24T00:12:38;10.10;65.60
65087;DHT22;52094;51.234;-2.310;2022-09-24T00:16:22;10.10;65.80
65087;DHT22;52094;51.234;-2.310;2022-09-24T00:20:07;10.10;66.00
65087;DHT22;52094;51.234;-2.310;2022-09-24T00:23:54;10.10;66.20
65087;DHT22;52094;51.234;-2.310;2022-09-24T00:27:37;10.10;66.60
65087;DHT22;52094;51.234;-2.310;2022-09-24T00:31:19;10.10;66.40
65087;DHT22;52094;51.234;-2.310;2022-09-24T00:35:02;10.10;66.50
65087;DHT22;52094;51.234;-2.310;2022-09-24T00:38:48;10.10;66.50
65087;DHT22;52094;51.234;-2.310;2022-09-24T00:42:31;10.10;66.60
65087;DHT22;52094;51.234;-2.310;2022-09-24T00:46:24;10.00;66.60
65087;DHT22;52094;51.234;-2.310;2022-09-24T00:50:30;10.00;66.70
65087;DHT22;52094;51.234;-2.310;2022-09-24T00:54:18;10.00;68.50
65087;DHT22;52094;51.234;-2.310;2022-09-24T00:58:03;10.00;67.00
65087;DHT22;52094;51.234;-2.310;2022-09-24T01:01:47;9.90;66.90
65087;DHT22;52094;51.234;-2.310;2022-09-24T01:05:30;9.90;67.00
65087;DHT22;52094;51.234;-2.310;2022-09-24T01:09:12;9.80;67.00
65087;DHT22;52094;51.234;-2.310;2022-09-24T01:13:11;9.80;67.00
65087;DHT22;52094;51.234;-2.310;2022-09-24T01:21:12;9.60;66.90
65087;DHT22;52094;51.234;-2.310;2022-09-24T01:29:30;9.40;69.10
65087;DHT22;52094;51.234;-2.310;2022-09-24T01:33:18;9.30;68.30
65087;DHT22;52094;51.234;-2.310;2022-09-24T01:37:01;9.20;67.50
65087;DHT22;52094;51.234;-2.310;2022-09-24T01:40:45;9.20;67.50
65087;DHT22;52094;51.234;-2.310;2022-09-24T01:44:29;9.20;67.60
65087;DHT22;52094;51.234;-2.310;2022-09-24T01:48:12;9.20;68.00
65087;DHT22;52094;51.234;-2.310;2022-09-24T01:51:58;9.10;68.00
65087;DHT22;52094;51.234;-2.310;2022-09-24T01:55:45;9.00;68.00
65087;DHT22;52094;51.234;-2.310;2022-09-24T01:59:39;8.90;67.90
65087;DHT22;52094;51.234;-2.310;2022-09-24T02:03:27;8.90;68.90
65087;DHT22;52094;51.234;-2.310;2022-09-24T02:07:14;8.80;68.20
65087;DHT22;52094;51.234;-2.310;2022-09-24T02:11:01;8.70;68.10
65087;DHT22;52094;51.234;-2.310;2022-09-24T02:14:48;8.70;68.20
65087;DHT22;52094;51.234;-2.310;2022-09-24T02:18:35;8.60;68.20
65087;DHT22;52094;51.234;-2.310;2022-09-24T02:22:19;8.50;68.30
65087;DHT22;52094;51.234;-2.310;2022-09-24T02:26:04;8.50;68.50
65087;DHT22;52094;51.234;-2.310;2022-09-24T02:29:47;8.50;69.80
65087;DHT22;52094;51.234;-2.310;2022-09-24T02:33:31;8.40;69.30
65087;DHT22;52094;51.234;-2.310;2022-09-24T02:37:37;8.20;69.00
65087;DHT22;52094;51.234;-2.310;2022-09-24T02:41:21;8.20;69.30
65087;DHT22;52094;51.234;-2.310;2022-09-24T02:45:05;8.20;69.30
65087;DHT22;52094;51.234;-2.310;2022-09-24T02:48:48;8.20;69.30
65087;DHT22;52094;51.234;-2.310;2022-09-24T02:52:30;8.10;69.40
65087;DHT22;52094;51.234;-2.310;2022-09-24T02:56:13;8.10;69.50
65087;DHT22;52094;51.234;-2.310;2022-09-24T02:59:55;8.10;69.60
65087;DHT22;52094;51.234;-2.310;2022-09-24T03:03:38;8.00;69.80
65087;DHT22;52094;51.234;-2.310;2022-09-24T03:07:21;8.00;69.90
65087;DHT22;52094;51.234;-2.310;2022-09-24T03:11:03;8.00;69.80
65087;DHT22;52094;51.234;-2.310;2022-09-24T03:14:46;7.90;69.90
65087;DHT22;52094;51.234;-2.310;2022-09-24T03:18:28;7.90;69.90
65087;DHT22;52094;51.234;-2.310;2022-09-24T03:22:10;7.90;70.70
65087;DHT22;52094;51.234;-2.310;2022-09-24T03:25:54;7.90;70.20
65087;DHT22;52094;51.234;-2.310;2022-09-24T03:29:39;7.80;69.90
65087;DHT22;52094;51.234;-2.310;2022-09-24T03:33:47;7.80;70.10
65087;DHT22;52094;51.234;-2.310;2022-09-24T03:37:30;7.70;70.60
65087;DHT22;52094;51.234;-2.310;2022-09-24T03:41:14;7.70;70.30
65087;DHT22;52094;51.234;-2.310;2022-09-24T03:44:56;7.70;70.10
65087;DHT22;52094;51.234;-2.310;2022-09-24T03:48:40;7.70;70.80
65087;DHT22;52094;51.234;-2.310;2022-09-24T03:52:23;7.60;70.00
65087;DHT22;52094;51.234;-2.310;2022-09-24T03:56:06;7.50;70.30
65087;DHT22;52094;51.234;-2.310;2022-09-24T03:59:48;7.40;70.20
65087;DHT22;52094;51.234;-2.310;2022-09-24T04:03:33;7.40;70.30
65087;DHT22;52094;51.234;-2.310;2022-09-24T04:11:02;7.30;70.50
65087;DHT22;52094;51.234;-2.310;2022-09-24T04:14:44;7.30;70.50
65087;DHT22;52094;51.234;-2.310;2022-09-24T04:18:26;7.20;70.70
65087;DHT22;52094;51.234;-2.310;2022-09-24T04:22:09;7.20;70.60
65087;DHT22;52094;51.234;-2.310;2022-09-24T04:25:51;7.20;70.70
65087;DHT22;52094;51.234;-2.310;2022-09-24T04:29:33;7.20;71.30
65087;DHT22;52094;51.234;-2.310;2022-09-24T04:33:15;7.10;71.10
65087;DHT22;52094;51.234;-2.310;2022-09-24T04:36:58;7.00;70.80
65087;DHT22;52094;51.234;-2.310;2022-09-24T04:50:00;6.90;71.60
65087;DHT22;52094;51.234;-2.310;2022-09-24T04:53:44;6.90;73.00
65087;DHT22;52094;51.234;-2.310;2022-09-24T04:57:29;6.80;71.00
65087;DHT22;52094;51.234;-2.310;2022-09-24T05:01:17;6.80;70.90
65087;DHT22;52094;51.234;-2.310;2022-09-24T05:05:01;6.70;70.80
65087;DHT22;52094;51.234;-2.310;2022-09-24T05:08:44;6.60;71.10
65087;DHT22;52094;51.234;-2.310;2022-09-24T05:12:26;6.60;71.40
65087;DHT22;52094;51.234;-2.310;2022-09-24T05:16:09;6.60;71.50
65087;DHT22;52094;51.234;-2.310;2022-09-24T05:19:51;6.60;71.50
65087;DHT22;52094;51.234;-2.310;2022-09-24T05:23:34;6.60;71.50
65087;DHT22;52094;51.234;-2.310;2022-09-24T05:27:17;6.60;71.60
65087;DHT22;52094;51.234;-2.310;2022-09-24T05:31:00;6.60;71.90
65087;DHT22;52094;51.234;-2.310;2022-09-24T05:34:43;6.60;72.00
65087;DHT22;52094;51.234;-2.310;2022-09-24T05:38:26;6.60;71.60
65087;DHT22;52094;51.234;-2.310;2022-09-24T05:42:11;6.50;71.70
65087;DHT22;52094;51.234;-2.310;2022-09-24T05:45:56;6.50;72.20
65087;DHT22;52094;51.234;-2.310;2022-09-24T05:49:39;6.50;71.80
65087;DHT22;52094;51.234;-2.310;2022-09-24T05:53:21;6.40;71.80
65087;DHT22;52094;51.234;-2.310;2022-09-24T05:57:04;6.40;71.90
65087;DHT22;52094;51.234;-2.310;2022-09-24T06:00:46;6.30;72.00
65087;DHT22;52094;51.234;-2.310;2022-09-24T06:04:29;6.30;72.10
65087;DHT22;52094;51.234;-2.310;2022-09-24T06:08:12;6.30;72.10
65087;DHT22;52094;51.234;-2.310;2022-09-24T06:11:56;6.40;72.30
65087;DHT22;52094;51.234;-2.310;2022-09-24T06:15:39;6.40;73.10
65087;DHT22;52094;51.234;-2.310;2022-09-24T06:19:23;6.40;72.70
65087;DHT22;52094;51.234;-2.310;2022-09-24T06:23:05;6.40;72.80
65087;DHT22;52094;51.234;-2.310;2022-09-24T06:26:47;6.50;73.00
65087;DHT22;52094;51.234;-2.310;2022-09-24T06:30:37;6.60;73.50
65087;DHT22;52094;51.234;-2.310;2022-09-24T06:34:19;6.80;74.00
65087;DHT22;52094;51.234;-2.310;2022-09-24T06:38:06;7.10;75.00
65087;DHT22;52094;51.234;-2.310;2022-09-24T06:41:48;7.40;75.90
65087;DHT22;52094;51.234;-2.310;2022-09-24T06:45:32;7.90;76.00
65087;DHT22;52094;51.234;-2.310;2022-09-24T06:49:15;8.20;73.80
65087;DHT22;52094;51.234;-2.310;2022-09-24T06:52:57;8.30;73.20
65087;DHT22;52094;51.234;-2.310;2022-09-24T06:56:40;8.40;73.10
65087;DHT22;52094;51.234;-2.310;2022-09-24T07:00:22;8.50;74.90
65087;DHT22;52094;51.234;-2.310;2022-09-24T07:04:04;8.80;76.30
65087;DHT22;52094;51.234;-2.310;2022-09-24T07:07:46;9.40;80.40
65087;DHT22;52094;51.234;-2.310;2022-09-24T07:11:54;10.40;81.70
65087;DHT22;52094;51.234;-2.310;2022-09-24T07:15:38;11.70;78.00
65087;DHT22;52094;51.234;-2.310;2022-09-24T07:19:20;12.90;76.10
65087;DHT22;52094;51.234;-2.310;2022-09-24T07:23:07;13.30;71.30
65087;DHT22;52094;51.234;-2.310;2022-09-24T07:26:49;13.60;69.30
65087;DHT22;52094;51.234;-2.310;2022-09-24T07:30:32;14.30;76.00
65087;DHT22;52094;51.234;-2.310;2022-09-24T07:34:15;15.40;73.40
65087;DHT22;52094;51.234;-2.310;2022-09-24T07:37:58;15.70;66.70
65087;DHT22;52094;51.234;-2.310;2022-09-24T07:41:41;15.40;64.60
65087;DHT22;52094;51.234;-2.310;2022-09-24T07:45:25;14.90;64.70
65087;DHT22;52094;51.234;-2.310;2022-09-24T07:49:10;14.60;65.20
65087;DHT22;52094;51.234;-2.310;2022-09-24T07:52:56;14.40;65.70
65087;DHT22;52094;51.234;-2.310;2022-09-24T07:56:38;14.20;66.10
65087;DHT22;52094;51.234;-2.310;2022-09-24T08:00:22;14.40;73.40
65087;DHT22;52094;51.234;-2.310;2022-09-24T08:04:04;14.90;71.90
65087;DHT22;52094;51.234;-2.310;2022-09-24T08:07:54;15.20;68.60
65087;DHT22;52094;51.234;-2.310;2022-09-24T08:11:37;15.20;66.50
65087;DHT22;52094;51.234;-2.310;2022-09-24T08:15:20;15.10;65.90
65087;DHT22;52094;51.234;-2.310;2022-09-24T08:19:03;15.00;65.60
65087;DHT22;52094;51.234;-2.310;2022-09-24T08:22:45;15.20;66.90
65087;DHT22;52094;51.234;-2.310;2022-09-24T08:26:27;15.30;67.10
65087;DHT22;52094;51.234;-2.310;2022-09-24T08:30:10;15.30;65.90
65087;DHT22;52094;51.234;-2.310;2022-09-24T08:33:52;15.30;65.40
65087;DHT22;52094;51.234;-2.310;2022-09-24T08:37:34;15.30;65.60
65087;DHT22;52094;51.234;-2.310;2022-09-24T08:45:42;15.50;64.80
65087;DHT22;52094;51.234;-2.310;2022-09-24T08:49:47;15.50;65.10
65087;DHT22;52094;51.234;-2.310;2022-09-24T08:53:52;15.60;65.70
65087;DHT22;52094;51.234;-2.310;2022-09-24T08:57:43;15.80;64.70
65087;DHT22;52094;51.234;-2.310;2022-09-24T09:05:52;17.10;65.90
65087;DHT22;52094;51.234;-2.310;2022-09-24T09:09:47;18.20;63.80
65087;DHT22;52094;51.234;-2.310;2022-09-24T09:13:53;19.10;60.20
65087;DHT22;52094;51.234;-2.310;2022-09-24T09:17:46;19.20;58.10
65087;DHT22;52094;51.234;-2.310;2022-09-24T09:21:52;20.00;67.50
65087;DHT22;52094;51.234;-2.310;2022-09-24T09:25:35;21.20;61.30
65087;DHT22;52094;51.234;-2.310;2022-09-24T09:29:17;22.30;66.50
65087;DHT22;52094;51.234;-2.310;2022-09-24T09:37:18;26.30;53.60
65087;DHT22;52094;51.234;-2.310;2022-09-24T09:41:27;27.90;49.40
65087;DHT22;52094;51.234;-2.310;2022-09-24T09:49:26;30.20;43.20
65087;DHT22;52094;51.234;-2.310;2022-09-24T09:53:19;30.90;47.90
65087;DHT22;52094;51.234;-2.310;2022-09-24T09:57:02;31.40;43.00
65087;DHT22;52094;51.234;-2.310;2022-09-24T10:00:45;32.20;47.50
65087;DHT22;52094;51.234;-2.310;2022-09-24T10:08:23;33.00;42.10
65087;DHT22;52094;51.234;-2.310;2022-09-24T10:15:58;33.80;39.20
65087;DHT22;52094;51.234;-2.310;2022-09-24T10:19:42;33.70;39.10
65087;DHT22;52094;51.234;-2.310;2022-09-24T10:23:35;32.40;38.90
65087;DHT22;52094;51.234;-2.310;2022-09-24T10:27:40;31.50;37.50
65087;DHT22;52094;51.234;-2.310;2022-09-24T10:31:23;30.90;39.30
65087;DHT22;52094;51.234;-2.310;2022-09-24T10:35:31;30.70;41.20
65087;DHT22;52094;51.234;-2.310;2022-09-24T10:39:16;30.90;35.90
65087;DHT22;52094;51.234;-2.310;2022-09-24T10:43:01;31.40;40.30
65087;DHT22;52094;51.234;-2.310;2022-09-24T10:46:57;31.90;38.20
65087;DHT22;52094;51.234;-2.310;2022-09-24T10:50:56;32.30;35.00
65087;DHT22;52094;51.234;-2.310;2022-09-24T10:55:13;32.40;34.00
65087;DHT22;52094;51.234;-2.310;2022-09-24T11:03:27;32.40;31.50
65087;DHT22;52094;51.234;-2.310;2022-09-24T11:07:38;32.70;32.50
65087;DHT22;52094;51.234;-2.310;2022-09-24T11:16:12;34.20;31.10
65087;DHT22;52094;51.234;-2.310;2022-09-24T11:20:05;34.90;31.80
65087;DHT22;52094;51.234;-2.310;2022-09-24T11:52:02;35.10;29.20
65087;DHT22;52094;51.234;-2.310;2022-09-24T11:55:50;35.20;29.20
65087;DHT22;52094;51.234;-2.310;2022-09-24T12:00:15;35.30;30.10
65087;DHT22;52094;51.234;-2.310;2022-09-24T12:04:18;35.40;27.10
65087;DHT22;52094;51.234;-2.310;2022-09-24T12:12:31;35.60;29.30
65087;DHT22;52094;51.234;-2.310;2022-09-24T12:16:19;35.90;28.00
65087;DHT22;52094;51.234;-2.310;2022-09-24T12:20:27;36.20;29.60
65087;DHT22;52094;51.234;-2.310;2022-09-24T12:24:40;36.30;27.80
65087;DHT22;52094;51.234;-2.310;2022-09-24T12:33:05;36.40;27.60
65087;DHT22;52094;51.234;-2.310;2022-09-24T12:36:58;36.20;27.90
65087;DHT22;52094;51.234;-2.310;2022-09-24T12:44:53;35.20;27.10
65087;DHT22;52094;51.234;-2.310;2022-09-24T12:48:36;34.70;28.90
65087;DHT22;52094;51.234;-2.310;2022-09-24T12:52:25;34.30;29.80
65087;DHT22;52094;51.234;-2.310;2022-09-24T12:56:09;33.60;27.80
65087;DHT22;52094;51.234;-2.310;2022-09-24T12:59:54;32.80;29.70
65087;DHT22;52094;51.234;-2.310;2022-09-24T13:03:39;31.50;30.00
65087;DHT22;52094;51.234;-2.310;2022-09-24T13:07:34;29.60;31.90
65087;DHT22;52094;51.234;-2.310;2022-09-24T13:11:31;27.90;32.30
65087;DHT22;52094;51.234;-2.310;2022-09-24T13:15:36;26.70;32.80
65087;DHT22;52094;51.234;-2.310;2022-09-24T13:35:08;24.30;34.90
65087;DHT22;52094;51.234;-2.310;2022-09-24T13:42:57;23.70;35.70
65087;DHT22;52094;51.234;-2.310;2022-09-24T13:46:44;23.20;35.80
65087;DHT22;52094;51.234;-2.310;2022-09-24T13:50:30;23.00;36.40
65087;DHT22;52094;51.234;-2.310;2022-09-24T13:54:32;22.80;36.50
65087;DHT22;52094;51.234;-2.310;2022-09-24T13:58:36;22.60;36.70
65087;DHT22;52094;51.234;-2.310;2022-09-24T14:02:26;22.50;36.60
65087;DHT22;52094;51.234;-2.310;2022-09-24T14:06:14;22.40;36.90
65087;DHT22;52094;51.234;-2.310;2022-09-24T14:10:06;22.20;36.40
65087;DHT22;52094;51.234;-2.310;2022-09-24T14:13:52;21.90;36.80
65087;DHT22;52094;51.234;-2.310;2022-09-24T14:17:37;21.60;37.40
65087;DHT22;52094;51.234;-2.310;2022-09-24T14:21:35;21.20;37.60
65087;DHT22;52094;51.234;-2.310;2022-09-24T14:25:26;21.10;38.80
65087;DHT22;52094;51.234;-2.310;2022-09-24T14:29:33;21.10;39.30
65087;DHT22;52094;51.234;-2.310;2022-09-24T14:33:24;21.20;39.10
65087;DHT22;52094;51.234;-2.310;2022-09-24T14:37:30;21.30;39.00
65087;DHT22;52094;51.234;-2.310;2022-09-24T14:41:24;21.30;37.80
65087;DHT22;52094;51.234;-2.310;2022-09-24T14:49:25;21.20;38.50
65087;DHT22;52094;51.234;-2.310;2022-09-24T14:53:11;21.10;39.00
65087;DHT22;52094;51.234;-2.310;2022-09-24T14:56:54;21.10;38.60
65087;DHT22;52094;51.234;-2.310;2022-09-24T15:00:48;20.80;38.20
65087;DHT22;52094;51.234;-2.310;2022-09-24T15:04:31;20.50;38.70
65087;DHT22;52094;51.234;-2.310;2022-09-24T15:08:25;20.20;38.60
65087;DHT22;52094;51.234;-2.310;2022-09-24T15:12:23;20.00;39.40
65087;DHT22;52094;51.234;-2.310;2022-09-24T15:16:29;19.70;40.00
65087;DHT22;52094;51.234;-2.310;2022-09-24T15:20:14;19.50;40.10
65087;DHT22;52094;51.234;-2.310;2022-09-24T15:23:56;19.20;39.80
65087;DHT22;52094;51.234;-2.310;2022-09-24T15:27:39;18.90;40.10
65087;DHT22;52094;51.234;-2.310;2022-09-24T15:31:26;18.70;40.50
65087;DHT22;52094;51.234;-2.310;2022-09-24T15:35:13;18.50;41.10
65087;DHT22;52094;51.234;-2.310;2022-09-24T15:39:00;18.40;41.50
65087;DHT22;52094;51.234;-2.310;2022-09-24T15:42:44;18.20;41.80
65087;DHT22;52094;51.234;-2.310;2022-09-24T15:46:26;18.20;41.90
65087;DHT22;52094;51.234;-2.310;2022-09-24T15:50:10;18.30;42.20
65087;DHT22;52094;51.234;-2.310;2022-09-24T15:53:52;18.40;42.20
65087;DHT22;52094;51.234;-2.310;2022-09-24T15:57:35;18.40;42.20
65087;DHT22;52094;51.234;-2.310;2022-09-24T16:01:17;18.50;42.30
65087;DHT22;52094;51.234;-2.310;2022-09-24T16:05:00;18.70;42.20
65087;DHT22;52094;51.234;-2.310;2022-09-24T16:08:45;18.70;41.80
65087;DHT22;52094;51.234;-2.310;2022-09-24T16:12:27;18.70;41.80
65087;DHT22;52094;51.234;-2.310;2022-09-24T16:16:09;18.70;41.80
65087;DHT22;52094;51.234;-2.310;2022-09-24T16:19:52;18.70;41.80
65087;DHT22;52094;51.234;-2.310;2022-09-24T16:23:34;18.70;41.90
65087;DHT22;52094;51.234;-2.310;2022-09-24T16:27:16;18.70;42.00
65087;DHT22;52094;51.234;-2.310;2022-09-24T16:30:59;18.70;42.10
65087;DHT22;52094;51.234;-2.310;2022-09-24T16:34:45;18.70;42.40
65087;DHT22;52094;51.234;-2.310;2022-09-24T16:38:27;18.70;42.40
65087;DHT22;52094;51.234;-2.310;2022-09-24T16:42:09;18.80;42.40
65087;DHT22;52094;51.234;-2.310;2022-09-24T16:45:51;18.90;42.30
65087;DHT22;52094;51.234;-2.310;2022-09-24T16:49:33;19.00;42.10
65087;DHT22;52094;51.234;-2.310;2022-09-24T16:53:16;19.00;41.70
65087;DHT22;52094;51.234;-2.310;2022-09-24T16:56:58;19.00;41.70
65087;DHT22;52094;51.234;-2.310;2022-09-24T17:00:42;19.00;42.10
65087;DHT22;52094;51.234;-2.310;2022-09-24T17:04:25;18.90;42.40
65087;DHT22;52094;51.234;-2.310;2022-09-24T17:08:07;18.80;42.80
65087;DHT22;52094;51.234;-2.310;2022-09-24T17:11:49;18.70;43.10
65087;DHT22;52094;51.234;-2.310;2022-09-24T17:15:33;18.60;43.30
65087;DHT22;52094;51.234;-2.310;2022-09-24T17:19:15;18.40;43.70
65087;DHT22;52094;51.234;-2.310;2022-09-24T17:22:57;18.20;43.90
65087;DHT22;52094;51.234;-2.310;2022-09-24T17:26:39;18.00;44.20
65087;DHT22;52094;51.234;-2.310;2022-09-24T17:30:22;17.90;44.40
65087;DHT22;52094;51.234;-2.310;2022-09-24T17:34:06;17.80;44.70
65087;DHT22;52094;51.234;-2.310;2022-09-24T17:37:53;17.70;44.80
65087;DHT22;52094;51.234;-2.310;2022-09-24T17:41:36;17.50;45.40
65087;DHT22;52094;51.234;-2.310;2022-09-24T17:45:18;17.40;45.20
65087;DHT22;52094;51.234;-2.310;2022-09-24T17:49:02;17.30;45.50
65087;DHT22;52094;51.234;-2.310;2022-09-24T17:52:44;17.20;45.90
65087;DHT22;52094;51.234;-2.310;2022-09-24T17:56:28;17.20;45.80
65087;DHT22;52094;51.234;-2.310;2022-09-24T18:00:11;17.10;45.90
65087;DHT22;52094;51.234;-2.310;2022-09-24T18:08:50;16.90;48.10
65087;DHT22;52094;51.234;-2.310;2022-09-24T18:12:33;16.70;46.40
65087;DHT22;52094;51.234;-2.310;2022-09-24T18:16:16;16.70;46.90
65087;DHT22;52094;51.234;-2.310;2022-09-24T18:20:00;16.70;46.90
65087;DHT22;52094;51.234;-2.310;2022-09-24T18:23:42;16.60;47.10
65087;DHT22;52094;51.234;-2.310;2022-09-24T18:27:25;16.50;47.20
65087;DHT22;52094;51.234;-2.310;2022-09-24T18:31:09;16.50;47.40
65087;DHT22;52094;51.234;-2.310;2022-09-24T18:34:52;16.30;47.70
65087;DHT22;52094;51.234;-2.310;2022-09-24T18:38:34;16.30;47.70
65087;DHT22;52094;51.234;-2.310;2022-09-24T18:42:16;16.20;47.80
65087;DHT22;52094;51.234;-2.310;2022-09-24T18:46:07;16.20;48.00
65087;DHT22;52094;51.234;-2.310;2022-09-24T18:49:49;16.10;49.50
65087;DHT22;52094;51.234;-2.310;2022-09-24T18:53:32;16.00;48.30
65087;DHT22;52094;51.234;-2.310;2022-09-24T18:57:16;15.90;48.70
65087;DHT22;52094;51.234;-2.310;2022-09-24T19:00:59;15.80;48.80
65087;DHT22;52094;51.234;-2.310;2022-09-24T19:04:41;15.70;49.00
65087;DHT22;52094;51.234;-2.310;2022-09-24T19:08:23;15.70;49.20
65087;DHT22;52094;51.234;-2.310;2022-09-24T19:12:06;15.70;49.60
65087;DHT22;52094;51.234;-2.310;2022-09-24T19:15:49;15.70;49.70
65087;DHT22;52094;51.234;-2.310;2022-09-24T19:19:32;15.60;50.00
65087;DHT22;52094;51.234;-2.310;2022-09-24T19:23:14;15.60;50.80
65087;DHT22;52094;51.234;-2.310;2022-09-24T19:26:58;15.60;50.60
65087;DHT22;52094;51.234;-2.310;2022-09-24T19:30:43;15.60;50.80
65087;DHT22;52094;51.234;-2.310;2022-09-24T19:34:28;15.60;51.00
65087;DHT22;52094;51.234;-2.310;2022-09-24T19:38:10;15.60;51.10
65087;DHT22;52094;51.234;-2.310;2022-09-24T19:41:52;15.60;51.20
65087;DHT22;52094;51.234;-2.310;2022-09-24T19:45:34;15.50;51.50
65087;DHT22;52094;51.234;-2.310;2022-09-24T19:49:19;15.50;51.70
65087;DHT22;52094;51.234;-2.310;2022-09-24T19:53:01;15.40;51.30
65087;DHT22;52094;51.234;-2.310;2022-09-24T19:56:44;15.30;51.30
65087;DHT22;52094;51.234;-2.310;2022-09-24T20:00:26;15.20;51.30
65087;DHT22;52094;51.234;-2.310;2022-09-24T20:04:08;15.20;51.40
65087;DHT22;52094;51.234;-2.310;2022-09-24T20:07:51;15.10;51.70
65087;DHT22;52094;51.234;-2.310;2022-09-24T20:11:33;15.00;51.80
65087;DHT22;52094;51.234;-2.310;2022-09-24T20:15:15;15.00;51.80
65087;DHT22;52094;51.234;-2.310;2022-09-24T20:18:58;14.80;51.80
65087;DHT22;52094;51.234;-2.310;2022-09-24T20:22:40;14.70;52.00
65087;DHT22;52094;51.234;-2.310;2022-09-24T20:26:24;14.70;52.20
65087;DHT22;52094;51.234;-2.310;2022-09-24T20:30:24;14.60;52.20
65087;DHT22;52094;51.234;-2.310;2022-09-24T20:34:07;14.50;52.30
65087;DHT22;52094;51.234;-2.310;2022-09-24T20:37:50;14.50;52.40
65087;DHT22;52094;51.234;-2.310;2022-09-24T20:41:32;14.40;52.50
65087;DHT22;52094;51.234;-2.310;2022-09-24T20:45:14;14.30;52.60
65087;DHT22;52094;51.234;-2.310;2022-09-24T20:48:59;14.20;52.70
65087;DHT22;52094;51.234;-2.310;2022-09-24T20:52:41;14.10;52.70
65087;DHT22;52094;51.234;-2.310;2022-09-24T20:56:23;14.00;52.90
65087;DHT22;52094;51.234;-2.310;2022-09-24T21:00:06;13.90;53.00
65087;DHT22;52094;51.234;-2.310;2022-09-24T21:03:49;13.80;53.10
65087;DHT22;52094;51.234;-2.310;2022-09-24T21:07:32;13.70;53.30
65087;DHT22;52094;51.234;-2.310;2022-09-24T21:11:23;13.60;53.60
65087;DHT22;52094;51.234;-2.310;2022-09-24T21:15:08;13.50;54.30
65087;DHT22;52094;51.234;-2.310;2022-09-24T21:18:51;13.50;53.90
65087;DHT22;52094;51.234;-2.310;2022-09-24T21:22:35;13.40;54.00
65087;DHT22;52094;51.234;-2.310;2022-09-24T21:26:25;13.30;54.10
65087;DHT22;52094;51.234;-2.310;2022-09-24T21:30:08;13.20;55.40
65087;DHT22;52094;51.234;-2.310;2022-09-24T21:33:56;13.20;54.10
65087;DHT22;52094;51.234;-2.310;2022-09-24T21:37:39;13.10;54.50
65087;DHT22;52094;51.234;-2.310;2022-09-24T21:41:30;13.00;54.40
65087;DHT22;52094;51.234;-2.310;2022-09-24T21:45:13;12.80;55.80
65087;DHT22;52094;51.234;-2.310;2022-09-24T21:48:55;12.70;54.60
65087;DHT22;52094;51.234;-2.310;2022-09-24T21:52:38;12.70;54.90
65087;DHT22;52094;51.234;-2.310;2022-09-24T21:56:20;12.60;55.20
65087;DHT22;52094;51.234;-2.310;2022-09-24T22:00:03;12.50;55.40
65087;DHT22;52094;51.234;-2.310;2022-09-24T22:03:52;12.30;55.50
65087;DHT22;52094;51.234;-2.310;2022-09-24T22:07:35;12.30;55.80
65087;DHT22;52094;51.234;-2.310;2022-09-24T22:11:19;12.20;56.10
65087;DHT22;52094;51.234;-2.310;2022-09-24T22:15:01;12.10;56.30
65087;DHT22;52094;51.234;-2.310;2022-09-24T22:18:43;12.10;56.50
65087;DHT22;52094;51.234;-2.310;2022-09-24T22:22:25;12.00;56.70
65087;DHT22;52094;51.234;-2.310;2022-09-24T22:26:09;12.00;57.00
65087;DHT22;52094;51.234;-2.310;2022-09-24T22:29:51;11.90;57.20
65087;DHT22;52094;51.234;-2.310;2022-09-24T22:33:33;11.90;57.40
65087;DHT22;52094;51.234;-2.310;2022-09-24T22:37:34;11.80;57.60
65087;DHT22;52094;51.234;-2.310;2022-09-24T22:41:16;11.80;57.90
65087;DHT22;52094;51.234;-2.310;2022-09-24T22:44:58;11.70;58.30
65087;DHT22;52094;51.234;-2.310;2022-09-24T22:48:41;11.70;58.10
65087;DHT22;52094;51.234;-2.310;2022-09-24T22:52:25;11.70;58.30
65087;DHT22;52094;51.234;-2.310;2022-09-24T22:56:18;11.70;58.50
65087;DHT22;52094;51.234;-2.310;2022-09-24T23:00:02;11.60;60.60
65087;DHT22;52094;51.234;-2.310;2022-09-24T23:03:45;11.60;58.90
65087;DHT22;52094;51.234;-2.310;2022-09-24T23:07:30;11.60;59.00
65087;DHT22;52094;51.234;-2.310;2022-09-24T23:11:21;11.50;59.30
65087;DHT22;52094;51.234;-2.310;2022-09-24T23:15:03;11.50;59.30
65087;DHT22;52094;51.234;-2.310;2022-09-24T23:18:47;11.40;59.30
65087;DHT22;52094;51.234;-2.310;2022-09-24T23:22:29;11.40;59.50
65087;DHT22;52094;51.234;-2.310;2022-09-24T23:26:14;11.30;59.60
65087;DHT22;52094;51.234;-2.310;2022-09-24T23:29:57;11.30;59.80
65087;DHT22;52094;51.234;-2.310;2022-09-24T23:33:41;11.20;60.00
65087;DHT22;52094;51.234;-2.310;2022-09-24T23:37:23;11.20;60.30
65087;DHT22;52094;51.234;-2.310;2022-09-24T23:41:06;11.20;60.60
65087;DHT22;52094;51.234;-2.310;2022-09-24T23:44:49;11.20;60.70
65087;DHT22;52094;51.234;-2.310;2022-09-24T23:48:35;11.10;60.90
65087;DHT22;52094;51.234;-2.310;2022-09-24T23:52:17;11.10;61.30
65087;DHT22;52094;51.234;-2.310;2022-09-24T23:56:00;11.20;61.80
65087;DHT22;52094;51.234;-2.310;2022-09-24T23:59:43;11.20;61.70
